Portada
METAR-TAF:

METAR-TAF

Aeroports :

Keokuk Municipal Airport

Keokuk, Iowa, Estats Units d'Amèrica

latitud: 40-28N, longitud: 091-26W, altitud: 205 m

Observació

L'informe es va fer fa 15 minuts, a les 20:35 UTC
Vent 8 kt del Sud-Est
Temperatura 28°C
Humitat 45%
Pressió 1015 hPa
Visibilitat: 16.1 km
Cel clar

METAR: KEOK 152035Z AUTO 13008KT 10SM CLR 28/15 A2997 RMK A01

Hora: 15:50 (20:50 UTC)


TAF: manca

Observacions i pronòstics meteorològics de més de 4000 aeroports (METAR i TAF).

Les estacions disponibles són els punts grocs i vermells al mapa.

Posi el ratolí al punt desitjat per veure el nom de l'estació.

Feu clic per veure les observacions i els pronòstics meteorològics.

Per canviar el mapa: feu clic els botons verds amb una creu de color negre per apropar; al botó verd amb un guió per allunyar la imatge; o en les fletxes verdes per a mapes adjacents.


METAR-TAF: